createdAt,value
2023-02-04T00:00:20.500Z,6.93
2023-02-04T00:02:47.659Z,7.50
2023-02-04T00:05:17.238Z,10.77
2023-02-04T00:07:44.400Z,9.53
2023-02-04T00:10:11.432Z,5.50
2023-02-04T00:12:38.345Z,5.33
2023-02-04T00:15:06.071Z,4.23
2023-02-04T00:17:33.063Z,6.17
2023-02-04T00:19:59.970Z,4.20
2023-02-04T00:22:28.872Z,7.17
2023-02-04T00:24:55.804Z,5.10
2023-02-04T00:27:23.017Z,4.80
2023-02-04T00:29:50.101Z,4.23
2023-02-04T00:32:17.264Z,4.60
2023-02-04T00:34:44.393Z,6.23
2023-02-04T00:37:11.338Z,5.83
2023-02-04T00:39:38.230Z,7.33
2023-02-04T00:42:05.818Z,6.23
2023-02-04T00:44:33.032Z,5.37
2023-02-04T00:47:00.141Z,5.60
2023-02-04T00:49:27.040Z,4.83
2023-02-04T00:51:53.986Z,5.87
2023-02-04T00:54:21.078Z,5.37
2023-02-04T00:56:48.196Z,7.13
2023-02-04T00:59:15.105Z,7.60
2023-02-04T01:01:42.106Z,5.80
2023-02-04T01:04:09.144Z,5.30
2023-02-04T01:06:36.061Z,7.10
2023-02-04T01:09:04.277Z,7.00
2023-02-04T01:11:31.607Z,8.40
2023-02-04T01:13:59.021Z,7.17
2023-02-04T01:16:26.417Z,7.23
2023-02-04T01:18:55.838Z,7.17
2023-02-04T01:21:24.444Z,6.03
2023-02-04T01:23:51.683Z,6.70
2023-02-04T01:26:22.437Z,6.50
2023-02-04T01:28:49.610Z,6.60
2023-02-04T01:31:17.209Z,5.73
2023-02-04T01:33:44.252Z,7.90
2023-02-04T01:36:11.272Z,9.23
2023-02-04T01:38:38.189Z,7.23
2023-02-04T01:41:06.020Z,8.07
2023-02-04T01:43:34.367Z,8.87
2023-02-04T01:46:02.681Z,6.53
2023-02-04T01:48:29.981Z,9.57
2023-02-04T01:51:09.577Z,9.40
2023-02-04T01:53:37.444Z,7.33
2023-02-04T01:56:20.737Z,7.03
2023-02-04T01:58:48.139Z,7.20
2023-02-04T02:01:33.544Z,6.60
2023-02-04T02:04:01.417Z,7.13
2023-02-04T02:06:29.285Z,8.30
2023-02-04T02:08:58.314Z,6.43
2023-02-04T02:11:26.848Z,8.07
2023-02-04T02:13:54.164Z,7.37
2023-02-04T02:16:21.543Z,7.20
2023-02-04T02:18:49.020Z,5.57
2023-02-04T02:21:20.102Z,5.40
2023-02-04T02:23:57.865Z,5.83
2023-02-04T02:26:25.170Z,5.80
2023-02-04T02:28:52.880Z,5.27
2023-02-04T02:31:21.999Z,3.87
2023-02-04T02:33:50.017Z,4.40
2023-02-04T02:36:17.297Z,3.50
2023-02-04T02:38:45.394Z,3.43
2023-02-04T02:41:12.396Z,6.43
2023-02-04T02:43:39.967Z,3.90
2023-02-04T02:46:07.316Z,3.80
2023-02-04T02:48:34.396Z,3.73
2023-02-04T02:51:01.420Z,3.43
2023-02-04T02:53:28.480Z,2.13
2023-02-04T02:55:55.544Z,5.43
2023-02-04T02:58:34.790Z,3.97
2023-02-04T03:01:05.516Z,5.73
2023-02-04T03:03:44.952Z,6.43
2023-02-04T03:06:22.700Z,2.00
2023-02-04T03:08:52.705Z,3.80
2023-02-04T03:11:19.692Z,6.70
2023-02-04T03:13:47.037Z,6.90
2023-02-04T03:16:14.269Z,8.80
2023-02-04T03:18:41.304Z,8.03
2023-02-04T03:21:08.633Z,5.73
2023-02-04T03:23:36.617Z,3.03
2023-02-04T03:26:05.239Z,4.90
2023-02-04T03:28:32.338Z,5.43
2023-02-04T03:30:59.923Z,5.50
2023-02-04T03:33:32.158Z,8.73
2023-02-04T03:35:59.320Z,2.93
2023-02-04T03:38:26.975Z,3.27
2023-02-04T03:40:53.921Z,9.53
2023-02-04T03:43:20.777Z,5.87
2023-02-04T03:45:47.739Z,4.33
2023-02-04T03:48:14.635Z,5.53
2023-02-04T03:50:42.096Z,6.43
2023-02-04T03:53:09.749Z,2.47
2023-02-04T03:55:36.803Z,6.77
2023-02-04T03:58:04.405Z,4.47
2023-02-04T04:00:32.616Z,8.13
2023-02-04T04:03:00.121Z,5.57
2023-02-04T04:05:28.566Z,5.63
2023-02-04T04:07:55.874Z,6.23
2023-02-04T04:10:22.799Z,8.07
2023-02-04T04:12:49.690Z,9.33
2023-02-04T04:15:16.778Z,5.40
2023-02-04T04:17:43.716Z,3.10
2023-02-04T04:20:11.413Z,8.03
2023-02-04T04:22:39.000Z,5.63
2023-02-04T04:25:07.098Z,4.37
2023-02-04T04:27:34.048Z,6.20
2023-02-04T04:30:01.258Z,2.80
2023-02-04T04:32:28.458Z,7.10
2023-02-04T04:34:55.344Z,3.73
2023-02-04T04:37:22.205Z,6.93
2023-02-04T04:39:49.169Z,5.07
2023-02-04T04:42:16.257Z,6.43
2023-02-04T04:44:43.187Z,5.27
2023-02-04T04:47:10.148Z,9.17
2023-02-04T04:49:37.043Z,4.90
2023-02-04T04:52:04.141Z,3.27
2023-02-04T04:54:31.057Z,5.83
2023-02-04T04:56:58.014Z,3.27
2023-02-04T04:59:24.900Z,3.77
2023-02-04T05:01:51.802Z,6.77
2023-02-04T05:04:18.710Z,3.73
2023-02-04T05:06:46.031Z,5.13
2023-02-04T05:09:12.967Z,1.90
2023-02-04T05:11:39.823Z,4.07
2023-02-04T05:14:06.733Z,4.10
2023-02-04T05:16:33.630Z,2.63
2023-02-04T05:19:00.581Z,3.90
2023-02-04T05:21:27.516Z,4.53
2023-02-04T05:23:54.515Z,2.27
2023-02-04T05:26:29.753Z,4.80
2023-02-04T05:28:57.393Z,6.03
2023-02-04T05:31:24.416Z,4.23
2023-02-04T05:33:51.318Z,6.33
2023-02-04T05:36:18.451Z,5.80
2023-02-04T05:38:45.374Z,1.33
2023-02-04T05:41:12.850Z,1.20
2023-02-04T05:43:39.930Z,4.70
2023-02-04T05:46:06.951Z,5.40
2023-02-04T05:48:34.084Z,2.10
2023-02-04T05:51:01.078Z,3.30
2023-02-04T05:53:27.980Z,4.80
2023-02-04T05:55:54.885Z,3.83
2023-02-04T05:58:21.911Z,4.00
2023-02-04T06:00:48.802Z,2.30
2023-02-04T06:03:15.937Z,3.77
2023-02-04T06:05:44.187Z,4.47
2023-02-04T06:08:11.217Z,5.57
2023-02-04T06:10:38.122Z,5.37
2023-02-04T06:13:05.125Z,4.87
2023-02-04T06:15:31.985Z,4.43
2023-02-04T06:17:58.974Z,3.00
2023-02-04T06:20:25.960Z,7.37
2023-02-04T06:22:54.398Z,1.93
2023-02-04T06:25:22.086Z,4.53
2023-02-04T06:27:49.706Z,2.67
2023-02-04T06:30:17.984Z,3.40
2023-02-04T06:32:44.965Z,7.67
2023-02-04T06:35:13.210Z,3.77
2023-02-04T06:37:40.135Z,2.10
2023-02-04T06:40:08.902Z,1.87
2023-02-04T06:42:35.914Z,4.07
2023-02-04T06:45:03.281Z,3.50
2023-02-04T06:47:30.584Z,4.37
2023-02-04T06:49:57.498Z,7.60
2023-02-04T06:52:24.399Z,3.07
2023-02-04T06:54:51.255Z,4.47
2023-02-04T06:57:18.213Z,3.33
2023-02-04T06:59:47.013Z,6.60
2023-02-04T07:02:14.255Z,4.00
2023-02-04T07:04:43.752Z,2.77
2023-02-04T07:07:11.619Z,3.70
2023-02-04T07:09:40.537Z,7.43
2023-02-04T07:12:07.724Z,4.03
2023-02-04T07:14:35.113Z,4.73
2023-02-04T07:17:02.194Z,2.00
2023-02-04T07:19:29.167Z,5.70
2023-02-04T07:21:57.145Z,5.07
2023-02-04T07:24:24.423Z,5.63
2023-02-04T07:26:51.710Z,4.30
2023-02-04T07:29:25.616Z,4.17
2023-02-04T07:31:53.819Z,2.90
2023-02-04T07:34:21.546Z,6.43
2023-02-04T07:36:48.547Z,3.17
2023-02-04T07:39:16.295Z,2.53
2023-02-04T07:41:43.349Z,3.27
2023-02-04T07:44:10.230Z,7.60
2023-02-04T07:46:37.178Z,6.93
2023-02-04T07:49:04.098Z,4.73
2023-02-04T07:51:31.163Z,4.03
2023-02-04T07:53:58.108Z,7.47
2023-02-04T07:56:25.013Z,3.63
2023-02-04T07:58:52.133Z,5.13
2023-02-04T08:01:19.163Z,5.60
2023-02-04T08:03:46.246Z,7.83
2023-02-04T08:06:13.220Z,4.20
2023-02-04T08:08:40.358Z,3.60
2023-02-04T08:11:07.325Z,4.50
2023-02-04T08:13:34.228Z,5.13
2023-02-04T08:16:01.165Z,7.47
2023-02-04T08:18:28.101Z,6.57
2023-02-04T08:20:55.093Z,8.73
2023-02-04T08:23:22.915Z,6.60
2023-02-04T08:25:49.796Z,5.20
2023-02-04T08:28:16.878Z,4.53
2023-02-04T08:30:43.878Z,3.37
2023-02-04T08:33:10.762Z,11.80
2023-02-04T08:35:37.694Z,6.83
2023-02-04T08:38:04.641Z,3.37
2023-02-04T08:40:33.278Z,3.93
2023-02-04T08:43:00.333Z,6.60
2023-02-04T08:45:27.654Z,11.00
2023-02-04T08:47:54.570Z,7.30
2023-02-04T08:50:21.482Z,9.57
2023-02-04T08:52:48.369Z,10.67
2023-02-04T08:55:15.887Z,9.20
2023-02-04T08:57:42.829Z,8.93
2023-02-04T09:00:12.496Z,6.20
2023-02-04T09:02:39.375Z,8.97
2023-02-04T09:05:07.006Z,12.10
2023-02-04T09:07:33.914Z,5.50
2023-02-04T09:10:00.788Z,10.80
2023-02-04T09:12:27.721Z,10.40
2023-02-04T09:14:54.667Z,12.60
2023-02-04T09:17:21.665Z,5.67
2023-02-04T09:19:48.551Z,6.73
2023-02-04T09:22:15.632Z,9.37
2023-02-04T09:24:42.548Z,11.87
2023-02-04T09:27:09.497Z,8.10
2023-02-04T09:29:36.436Z,7.17
2023-02-04T09:32:03.488Z,8.03
2023-02-04T09:34:30.498Z,9.60
2023-02-04T09:36:57.365Z,8.63
2023-02-04T09:39:24.325Z,5.60
2023-02-04T09:41:54.182Z,9.10
2023-02-04T09:44:25.169Z,5.63
2023-02-04T09:46:57.216Z,9.80
2023-02-04T09:49:25.022Z,9.33
2023-02-04T09:51:52.888Z,9.30
2023-02-04T09:54:23.073Z,10.17
2023-02-04T09:56:51.669Z,12.33
2023-02-04T09:59:24.177Z,9.17
2023-02-04T10:02:01.448Z,9.43
2023-02-04T10:04:29.301Z,9.13
2023-02-04T10:06:58.932Z,11.63
2023-02-04T10:09:26.207Z,8.33
2023-02-04T10:11:53.317Z,9.20
2023-02-04T10:14:23.108Z,16.63
2023-02-04T10:16:59.295Z,10.87
2023-02-04T10:19:28.842Z,13.97
2023-02-04T10:21:56.449Z,11.17
2023-02-04T10:24:30.481Z,6.93
2023-02-04T10:27:10.409Z,19.73
2023-02-04T10:29:37.850Z,17.23
2023-02-04T10:32:05.115Z,17.23
2023-02-04T10:34:39.925Z,15.50
2023-02-04T10:37:20.718Z,17.63
2023-02-04T10:39:49.697Z,11.63
2023-02-04T10:42:27.725Z,9.83
2023-02-04T10:44:55.276Z,19.23
2023-02-04T10:47:25.563Z,15.60
2023-02-04T10:49:53.609Z,18.63
2023-02-04T10:52:23.239Z,10.47
2023-02-04T10:54:50.352Z,12.60
2023-02-04T10:57:22.154Z,17.47
2023-02-04T10:59:54.028Z,17.93
2023-02-04T11:02:43.443Z,10.47
2023-02-04T11:05:19.053Z,10.27
2023-02-04T11:07:48.048Z,12.20
2023-02-04T11:10:30.484Z,14.13
2023-02-04T11:12:57.537Z,10.77
2023-02-04T11:16:11.699Z,11.73
2023-02-04T11:19:01.502Z,20.97
2023-02-04T11:21:33.407Z,12.53
2023-02-04T11:24:13.727Z,13.97
2023-02-04T11:26:52.498Z,12.30
2023-02-04T11:29:38.356Z,11.03
2023-02-04T11:32:27.623Z,14.80
2023-02-04T11:34:57.291Z,14.20
2023-02-04T11:37:37.390Z,9.10
2023-02-04T11:40:33.271Z,15.80
2023-02-04T11:43:11.661Z,15.53
2023-02-04T11:45:39.511Z,11.03
2023-02-04T11:48:19.109Z,16.43
2023-02-04T11:50:57.398Z,10.90
2023-02-04T11:53:32.122Z,11.80
2023-02-04T11:55:59.611Z,13.17
2023-02-04T11:58:30.935Z,11.83
2023-02-04T12:00:58.194Z,21.00
2023-02-04T12:03:32.140Z,11.63
2023-02-04T12:05:59.777Z,14.20
2023-02-04T12:08:33.539Z,13.53
2023-02-04T12:11:04.716Z,7.77
2023-02-04T12:13:32.229Z,12.10
2023-02-04T12:16:07.693Z,8.70
2023-02-04T12:18:35.593Z,18.57
2023-02-04T12:21:04.396Z,10.00
2023-02-04T12:23:32.828Z,8.83
2023-02-04T12:26:00.273Z,11.10
2023-02-04T12:28:28.909Z,13.93
2023-02-04T12:30:56.542Z,13.07
2023-02-04T12:33:23.644Z,11.13
2023-02-04T12:35:52.810Z,7.63
2023-02-04T12:38:20.742Z,6.87
2023-02-04T12:40:47.900Z,14.40
2023-02-04T12:43:14.914Z,12.43
2023-02-04T12:45:45.712Z,11.60
2023-02-04T12:48:13.965Z,16.07
2023-02-04T12:50:41.379Z,10.60
2023-02-04T12:53:08.914Z,9.63
2023-02-04T12:55:35.895Z,7.93
2023-02-04T12:58:02.906Z,12.40
2023-02-04T13:00:29.882Z,13.20
2023-02-04T13:02:59.073Z,16.00
2023-02-04T13:05:27.588Z,13.33
2023-02-04T13:07:54.878Z,11.07
2023-02-04T13:10:23.916Z,10.93
2023-02-04T13:12:51.648Z,12.50
2023-02-04T13:15:18.964Z,14.07
2023-02-04T13:17:46.080Z,18.37
2023-02-04T13:20:13.208Z,17.50
2023-02-04T13:22:40.294Z,11.53
2023-02-04T13:25:07.429Z,11.80
2023-02-04T13:27:34.437Z,13.47
2023-02-04T13:30:01.339Z,7.93
2023-02-04T13:32:28.242Z,12.43
2023-02-04T13:34:55.155Z,16.23
2023-02-04T13:37:23.145Z,12.53
2023-02-04T13:39:50.031Z,13.10
2023-02-04T13:42:16.988Z,13.50
2023-02-04T13:44:43.904Z,8.33
2023-02-04T13:47:10.961Z,8.57
2023-02-04T13:49:37.960Z,14.73
2023-02-04T13:52:05.133Z,10.73
2023-02-04T13:54:32.116Z,10.50
2023-02-04T13:56:59.040Z,13.20
2023-02-04T13:59:25.964Z,11.80
2023-02-04T14:01:52.948Z,11.60
2023-02-04T14:04:20.079Z,25.87
2023-02-04T14:06:46.932Z,11.87
2023-02-04T14:09:13.874Z,10.80
2023-02-04T14:11:40.948Z,8.70
2023-02-04T14:14:08.430Z,12.10
2023-02-04T14:16:37.765Z,10.37
2023-02-04T14:19:07.232Z,10.17
2023-02-04T14:21:34.104Z,13.43
2023-02-04T14:24:01.681Z,9.90
2023-02-04T14:26:28.755Z,8.87
2023-02-04T14:28:55.660Z,14.57
2023-02-04T14:31:22.663Z,10.80
2023-02-04T14:33:50.456Z,15.10
2023-02-04T14:36:17.563Z,9.37
2023-02-04T14:38:44.465Z,13.50
2023-02-04T14:41:16.175Z,9.60
2023-02-04T14:43:43.279Z,17.63
2023-02-04T14:46:10.295Z,12.33
2023-02-04T14:48:37.221Z,9.77
2023-02-04T14:51:04.728Z,11.50
2023-02-04T14:53:31.698Z,10.43
2023-02-04T14:55:58.616Z,6.47
2023-02-04T14:58:27.813Z,9.17
2023-02-04T15:00:55.593Z,5.07
2023-02-04T15:03:22.973Z,3.10
2023-02-04T15:05:49.958Z,7.50
2023-02-04T15:08:17.081Z,7.83
2023-02-04T15:10:43.964Z,7.33
2023-02-04T15:13:11.433Z,3.53
2023-02-04T15:15:38.376Z,5.80
2023-02-04T15:18:05.451Z,6.93
2023-02-04T15:20:32.630Z,6.97
2023-02-04T15:23:01.032Z,11.73
2023-02-04T15:25:28.217Z,6.87
2023-02-04T15:27:55.272Z,6.87
2023-02-04T15:30:22.453Z,15.33
2023-02-04T15:32:49.478Z,6.10
2023-02-04T15:35:16.458Z,7.20
2023-02-04T15:37:43.357Z,11.83
2023-02-04T15:40:11.700Z,12.37
2023-02-04T15:42:38.814Z,13.60
2023-02-04T15:45:07.037Z,12.17
2023-02-04T15:47:34.012Z,9.57
2023-02-04T15:50:01.015Z,11.87
2023-02-04T15:52:29.388Z,15.83
2023-02-04T15:54:56.646Z,12.27
2023-02-04T15:57:23.672Z,9.97
2023-02-04T15:59:50.792Z,13.00
2023-02-04T16:02:17.820Z,16.17
2023-02-04T16:04:45.389Z,11.37
2023-02-04T16:07:12.812Z,9.33
2023-02-04T16:09:39.898Z,21.60
2023-02-04T16:12:06.913Z,10.10
2023-02-04T16:14:33.868Z,12.90
2023-02-04T16:17:01.757Z,13.13
2023-02-04T16:19:29.508Z,16.30
2023-02-04T16:21:56.471Z,10.97
2023-02-04T16:24:23.528Z,9.87
2023-02-04T16:26:50.404Z,10.37
2023-02-04T16:29:17.391Z,10.37
2023-02-04T16:31:44.367Z,14.93
2023-02-04T16:34:11.406Z,6.87
2023-02-04T16:36:38.346Z,11.33
2023-02-04T16:39:05.493Z,14.03
2023-02-04T16:41:32.462Z,9.53
2023-02-04T16:44:00.207Z,16.60
2023-02-04T16:46:28.711Z,12.97
2023-02-04T16:48:55.675Z,8.30
2023-02-04T16:51:22.620Z,12.07
2023-02-04T16:53:50.411Z,17.37
2023-02-04T16:56:17.520Z,14.13
2023-02-04T16:58:44.828Z,9.77
2023-02-04T17:01:12.121Z,15.97
2023-02-04T17:03:39.809Z,9.40
2023-02-04T17:06:07.258Z,14.10
2023-02-04T17:08:34.551Z,11.67
2023-02-04T17:11:27.291Z,11.80
2023-02-04T17:13:55.541Z,11.90
2023-02-04T17:16:22.619Z,13.93
2023-02-04T17:18:49.537Z,12.97
2023-02-04T17:21:16.675Z,18.07
2023-02-04T17:23:45.063Z,13.60
2023-02-04T17:26:12.098Z,7.50
2023-02-04T17:28:39.060Z,8.70
2023-02-04T17:31:07.385Z,8.57
2023-02-04T17:33:35.076Z,11.40
2023-02-04T17:36:02.964Z,10.27
2023-02-04T17:38:30.381Z,9.27
2023-02-04T17:40:58.152Z,9.30
2023-02-04T17:43:25.913Z,16.60
2023-02-04T17:45:52.938Z,10.00
2023-02-04T17:48:19.839Z,12.47
2023-02-04T17:50:46.803Z,9.70
2023-02-04T17:53:13.777Z,11.23
2023-02-04T17:55:40.724Z,11.40
2023-02-04T17:58:19.911Z,11.13
2023-02-04T18:00:48.819Z,12.73
2023-02-04T18:03:20.607Z,15.17
2023-02-04T18:05:51.405Z,13.03
2023-02-04T18:08:25.416Z,19.63
2023-02-04T18:10:55.272Z,11.23
2023-02-04T18:13:35.139Z,12.70
2023-02-04T18:16:17.217Z,19.97
2023-02-04T18:18:44.170Z,16.63
2023-02-04T18:21:31.332Z,24.07
2023-02-04T18:24:28.933Z,22.87
2023-02-04T18:27:00.296Z,20.07
2023-02-04T18:29:27.105Z,17.77
2023-02-04T18:31:58.615Z,17.90
2023-02-04T18:34:40.364Z,23.80
2023-02-04T18:37:29.486Z,18.23
2023-02-04T18:40:08.820Z,20.07
2023-02-04T18:42:45.457Z,13.70
2023-02-04T18:45:31.905Z,12.00
2023-02-04T18:48:22.894Z,12.93
2023-02-04T18:50:54.076Z,20.77
2023-02-04T18:53:26.526Z,13.23
2023-02-04T18:55:57.939Z,12.83
2023-02-04T18:58:29.169Z,14.63
2023-02-04T19:01:10.169Z,12.00
2023-02-04T19:03:56.049Z,10.20
2023-02-04T19:06:42.650Z,15.10
2023-02-04T19:09:12.571Z,13.73
2023-02-04T19:11:48.517Z,19.27
2023-02-04T19:14:47.881Z,21.00
2023-02-04T19:17:16.852Z,17.97
2023-02-04T19:20:00.655Z,12.00
2023-02-04T19:22:46.606Z,21.83
2023-02-04T19:25:32.274Z,12.57
2023-02-04T19:28:24.441Z,12.03
2023-02-04T19:31:05.514Z,11.67
2023-02-04T19:33:45.335Z,16.00
2023-02-04T19:36:39.463Z,12.60
2023-02-04T19:39:45.042Z,13.73
2023-02-04T19:42:36.656Z,12.13
2023-02-04T19:45:25.605Z,13.60
2023-02-04T19:47:57.105Z,14.77
2023-02-04T19:50:32.149Z,21.10
2023-02-04T19:53:22.629Z,13.07
2023-02-04T19:55:54.087Z,17.23
2023-02-04T19:58:21.042Z,16.00
2023-02-04T20:00:50.654Z,10.30
2023-02-04T20:03:48.614Z,20.47
2023-02-04T20:06:27.546Z,16.77
2023-02-04T20:09:25.699Z,15.20
2023-02-04T20:11:57.240Z,13.93
2023-02-04T20:14:40.153Z,15.67
2023-02-04T20:17:22.172Z,13.83
2023-02-04T20:19:50.181Z,12.63
2023-02-04T20:22:22.041Z,11.90
2023-02-04T20:24:49.974Z,14.27
2023-02-04T20:27:21.299Z,15.30
2023-02-04T20:29:49.859Z,21.00
2023-02-04T20:32:26.486Z,12.03
2023-02-04T20:35:12.577Z,9.67
2023-02-04T20:37:41.809Z,8.67
2023-02-04T20:40:34.061Z,9.80
2023-02-04T20:43:03.667Z,10.00
2023-02-04T20:45:56.668Z,8.93
2023-02-04T20:48:31.865Z,14.53
2023-02-04T20:51:02.854Z,8.07
2023-02-04T20:53:50.886Z,10.23
2023-02-04T20:56:37.371Z,11.77
2023-02-04T20:59:16.096Z,10.73
2023-02-04T21:01:45.991Z,14.20
2023-02-04T21:04:19.375Z,14.27
2023-02-04T21:06:46.816Z,21.47
2023-02-04T21:09:26.976Z,15.43
2023-02-04T21:11:55.975Z,21.23
2023-02-04T21:14:24.197Z,21.03
2023-02-04T21:16:52.630Z,20.03
2023-02-04T21:19:20.980Z,14.77
2023-02-04T21:21:48.333Z,13.47
2023-02-04T21:24:15.924Z,15.60
2023-02-04T21:26:42.803Z,16.87
2023-02-04T21:29:11.355Z,17.13
2023-02-04T21:31:38.906Z,16.03
2023-02-04T21:34:06.839Z,25.17
2023-02-04T21:36:33.847Z,16.30
2023-02-04T21:39:00.705Z,11.70
2023-02-04T21:41:27.629Z,17.37
2023-02-04T21:43:54.595Z,12.80
2023-02-04T21:46:21.647Z,12.67
2023-02-04T21:48:48.685Z,11.40
2023-02-04T21:51:16.175Z,13.63
2023-02-04T21:53:44.252Z,13.57
2023-02-04T21:56:11.370Z,14.80
2023-02-04T21:58:38.821Z,16.50
2023-02-04T22:01:06.199Z,17.03
2023-02-04T22:03:33.217Z,13.93
2023-02-04T22:06:00.576Z,17.53
2023-02-04T22:08:27.603Z,14.27
2023-02-04T22:10:54.525Z,12.57
2023-02-04T22:13:21.461Z,14.17
2023-02-04T22:15:48.522Z,14.60
2023-02-04T22:18:15.740Z,11.43
2023-02-04T22:20:42.740Z,10.67
2023-02-04T22:23:09.700Z,11.13
2023-02-04T22:25:36.590Z,15.47
2023-02-04T22:28:03.528Z,12.10
2023-02-04T22:30:30.573Z,10.67
2023-02-04T22:33:00.015Z,12.57
2023-02-04T22:35:29.670Z,14.03
2023-02-04T22:38:00.054Z,13.10
2023-02-04T22:40:28.661Z,11.67
2023-02-04T22:42:55.536Z,17.83
2023-02-04T22:45:22.421Z,16.27
2023-02-04T22:47:50.408Z,17.67
2023-02-04T22:50:17.376Z,19.00
2023-02-04T22:52:44.305Z,15.33
2023-02-04T22:55:11.343Z,18.87
2023-02-04T22:57:38.237Z,22.83
2023-02-04T23:00:10.391Z,9.97
2023-02-04T23:02:37.286Z,14.30
2023-02-04T23:05:05.009Z,14.77
2023-02-04T23:07:33.066Z,12.60
2023-02-04T23:10:00.102Z,17.10
2023-02-04T23:12:27.029Z,14.10
2023-02-04T23:14:54.024Z,18.23
2023-02-04T23:17:21.064Z,13.97
2023-02-04T23:19:48.255Z,20.30
2023-02-04T23:22:17.125Z,15.40
2023-02-04T23:24:44.538Z,13.40
2023-02-04T23:27:12.190Z,19.30
2023-02-04T23:29:40.038Z,13.00
2023-02-04T23:32:07.456Z,16.73
2023-02-04T23:34:35.099Z,15.30
2023-02-04T23:37:02.267Z,16.57
2023-02-04T23:39:29.632Z,14.17
2023-02-04T23:41:56.703Z,19.03
2023-02-04T23:44:23.766Z,11.60
2023-02-04T23:46:50.950Z,19.63
2023-02-04T23:49:17.867Z,12.50
2023-02-04T23:51:45.335Z,14.23
2023-02-04T23:54:12.306Z,11.23
2023-02-04T23:56:39.269Z,14.13
2023-02-04T23:59:07.910Z,13.90
